Terminal Aerodrome Forecast
Issued by NWS

Home | Current Version | Previous Version | Text Only | Print | Product List | Glossary On
Versions: 1 2 3 4 5 6 7 8 9 10 11 12 13 14 15
495
FTUS43 KDVN 241144
TAFBRL
TAF
KBRL 241144Z 2412/2512 18005KT P6SM SCT080
     FM241500 19007KT P6SM BKN040
     FM250100 16004KT P6SM BKN070
     FM250500 15005KT 6SM BR VCSH BKN035=

USA.gov is the U.S. government's official web portal to all federal, state and local government web resources and services.